createdAt,value
2019-04-24T00:00:15.451Z,19.26
2019-04-24T00:01:05.320Z,19.32
2019-04-24T00:02:15.195Z,19.26
2019-04-24T00:04:09.981Z,19.27
2019-04-24T00:05:14.515Z,19.27
2019-04-24T00:06:08.615Z,19.26
2019-04-24T00:06:58.207Z,19.23
2019-04-24T00:08:06.357Z,19.30
2019-04-24T00:08:55.034Z,19.29
2019-04-24T00:10:13.850Z,19.20
2019-04-24T00:11:16.168Z,19.15
2019-04-24T00:13:08.441Z,19.30
2019-04-24T00:14:10.588Z,19.16
2019-04-24T00:15:54.905Z,19.20
2019-04-24T00:17:05.888Z,19.24
2019-04-24T00:18:25.518Z,19.20
2019-04-24T00:20:07.974Z,19.22
2019-04-24T00:21:02.078Z,19.19
2019-04-24T00:22:05.672Z,19.22
2019-04-24T00:23:03.879Z,19.20
2019-04-24T00:24:09.436Z,19.17
2019-04-24T00:25:03.830Z,19.19
2019-04-24T00:25:53.178Z,19.17
2019-04-24T00:27:01.487Z,19.16
2019-04-24T00:29:04.281Z,19.16
2019-04-24T00:29:58.235Z,19.24
2019-04-24T00:31:09.682Z,19.23
2019-04-24T00:31:57.178Z,19.24
2019-04-24T00:33:08.858Z,19.16
2019-04-24T00:35:02.082Z,19.22
2019-04-24T00:36:10.446Z,19.16
2019-04-24T00:36:57.150Z,19.19
2019-04-24T00:39:47.932Z,19.22
2019-04-24T00:41:06.396Z,19.19
2019-04-24T00:42:06.178Z,19.19
2019-04-24T00:43:18.065Z,19.22
2019-04-24T00:44:02.173Z,19.16
2019-04-24T00:44:59.194Z,19.12
2019-04-24T00:47:05.935Z,19.20
2019-04-24T00:49:54.393Z,19.16
2019-04-24T00:51:13.836Z,19.17
2019-04-24T00:51:52.133Z,19.08
2019-04-24T00:53:43.041Z,19.17
2019-04-24T00:54:55.721Z,19.09
2019-04-24T00:56:05.646Z,19.09
2019-04-24T00:57:56.226Z,19.09
2019-04-24T00:59:13.318Z,19.16
2019-04-24T00:59:45.831Z,19.09
2019-04-24T01:01:06.766Z,19.11
2019-04-24T01:02:01.569Z,19.04
2019-04-24T01:03:03.909Z,19.09
2019-04-24T01:06:11.349Z,18.98
2019-04-24T01:07:16.071Z,19.11
2019-04-24T01:07:59.888Z,19.08
2019-04-24T01:08:57.653Z,19.12
2019-04-24T01:10:53.503Z,19.19
2019-04-24T01:11:59.286Z,19.11
2019-04-24T01:13:01.432Z,19.15
2019-04-24T01:14:05.066Z,19.17
2019-04-24T01:15:15.851Z,19.09
2019-04-24T01:16:08.898Z,19.15
2019-04-24T01:17:10.304Z,19.08
2019-04-24T01:18:08.551Z,19.09
2019-04-24T01:20:11.464Z,19.08
2019-04-24T01:21:02.361Z,19.11
2019-04-24T01:24:06.220Z,19.17
2019-04-24T01:25:15.179Z,19.15
2019-04-24T01:29:05.864Z,19.11
2019-04-24T01:30:13.268Z,19.04
2019-04-24T01:31:10.573Z,19.01
2019-04-24T01:32:01.181Z,19.12
2019-04-24T01:33:08.721Z,19.09
2019-04-24T01:34:03.451Z,19.19
2019-04-24T01:34:54.552Z,19.09
2019-04-24T01:36:10.194Z,19.07
2019-04-24T01:37:00.610Z,19.05
2019-04-24T01:38:06.731Z,19.15
2019-04-24T01:40:59.989Z,19.09
2019-04-24T01:42:13.390Z,19.17
2019-04-24T01:43:07.694Z,19.11
2019-04-24T01:43:58.802Z,19.04
2019-04-24T01:46:00.428Z,19.11
2019-04-24T01:47:06.412Z,19.19
2019-04-24T01:49:00.422Z,19.07
2019-04-24T01:49:57.378Z,19.11
2019-04-24T01:50:52.377Z,19.09
2019-04-24T01:52:27.918Z,19.15
2019-04-24T01:52:54.170Z,19.09
2019-04-24T01:54:00.102Z,19.07
2019-04-24T01:55:08.730Z,19.07
2019-04-24T01:55:57.379Z,19.15
2019-04-24T01:57:01.459Z,19.04
2019-04-24T01:58:02.829Z,19.04
2019-04-24T01:59:06.071Z,19.09
2019-04-24T02:01:05.050Z,19.08
2019-04-24T02:02:07.871Z,19.01
2019-04-24T02:02:54.702Z,19.00
2019-04-24T02:04:58.104Z,18.89
2019-04-24T02:06:04.158Z,18.91
2019-04-24T02:07:05.812Z,18.96
2019-04-24T02:08:02.492Z,18.89
2019-04-24T02:09:15.081Z,18.76
2019-04-24T02:10:16.942Z,18.83
2019-04-24T02:11:11.180Z,18.91
2019-04-24T02:13:16.918Z,18.83
2019-04-24T02:13:48.985Z,18.92
2019-04-24T02:15:00.035Z,18.83
2019-04-24T02:15:43.528Z,18.88
2019-04-24T02:19:02.319Z,18.76
2019-04-24T02:20:06.187Z,18.73
2019-04-24T02:20:49.373Z,18.73
2019-04-24T02:21:58.964Z,18.70
2019-04-24T02:22:58.455Z,18.68
2019-04-24T02:23:57.095Z,18.74
2019-04-24T02:25:08.507Z,18.79
2019-04-24T02:27:15.233Z,18.78
2019-04-24T02:29:14.050Z,18.88
2019-04-24T02:29:54.326Z,18.82
2019-04-24T02:32:24.650Z,18.82
2019-04-24T02:33:22.703Z,18.88
2019-04-24T02:36:17.328Z,18.89
2019-04-24T02:37:26.705Z,18.88
2019-04-24T02:38:04.379Z,18.89
2019-04-24T02:39:25.091Z,18.82
2019-04-24T02:41:00.297Z,18.85
2019-04-24T02:43:06.378Z,18.94
2019-04-24T02:44:26.172Z,18.85
2019-04-24T02:45:04.075Z,18.78
2019-04-24T02:46:06.047Z,18.78
2019-04-24T02:46:57.311Z,18.76
2019-04-24T02:49:26.291Z,18.73
2019-04-24T02:50:02.614Z,18.76
2019-04-24T02:50:57.888Z,18.76
2019-04-24T02:52:04.331Z,18.81
2019-04-24T02:53:17.618Z,18.78
2019-04-24T02:56:13.793Z,18.79
2019-04-24T02:57:12.008Z,18.81
2019-04-24T02:57:58.800Z,18.78
2019-04-24T02:59:08.210Z,18.74
2019-04-24T03:00:04.653Z,18.78
2019-04-24T03:04:55.299Z,18.70
2019-04-24T03:06:13.498Z,18.71
2019-04-24T03:14:09.432Z,18.57
2019-04-24T03:15:17.480Z,18.63
2019-04-24T03:15:59.629Z,18.57
2019-04-24T03:20:45.704Z,18.60
2019-04-24T03:21:11.561Z,18.53
2019-04-24T03:25:12.257Z,18.48
2019-04-24T03:28:06.360Z,18.52
2019-04-24T03:30:02.489Z,18.46
2019-04-24T03:35:42.171Z,18.45
2019-04-24T03:37:32.481Z,18.41
2019-04-24T03:44:37.824Z,18.42
2019-04-24T03:45:17.334Z,18.43
2019-04-24T03:53:13.299Z,18.31
2019-04-24T03:54:10.446Z,18.33
2019-04-24T03:55:09.998Z,18.31
2019-04-24T03:56:06.286Z,18.33
2019-04-24T03:56:56.307Z,18.41
2019-04-24T03:59:15.533Z,18.34
2019-04-24T04:00:22.345Z,18.36
2019-04-24T04:00:59.167Z,18.28
2019-04-24T04:05:06.178Z,18.37
2019-04-24T04:05:39.953Z,18.36
2019-04-24T04:08:15.843Z,18.30
2019-04-24T04:09:20.964Z,18.36
2019-04-24T04:09:56.722Z,18.31
2019-04-24T04:13:20.212Z,18.33
2019-04-24T04:14:01.166Z,18.31
2019-04-24T04:17:28.373Z,18.34
2019-04-24T04:18:27.831Z,18.31
2019-04-24T04:21:02.388Z,18.42
2019-04-24T04:22:07.662Z,18.36
2019-04-24T04:29:09.164Z,18.39
2019-04-24T04:30:06.352Z,18.34
2019-04-24T04:31:58.720Z,18.34
2019-04-24T04:34:14.668Z,18.36
2019-04-24T04:34:57.956Z,18.37
2019-04-24T04:36:17.940Z,18.33
2019-04-24T04:38:17.767Z,18.33
2019-04-24T04:38:51.929Z,18.39
2019-04-24T04:41:08.929Z,18.37
2019-04-24T04:42:24.086Z,18.39
2019-04-24T04:43:27.487Z,18.34
2019-04-24T04:46:16.057Z,18.43
2019-04-24T04:47:46.759Z,18.41
2019-04-24T04:53:22.568Z,18.45
2019-04-24T04:53:58.376Z,18.42
2019-04-24T04:58:09.950Z,18.45
2019-04-24T05:01:14.069Z,18.48
2019-04-24T05:04:05.275Z,18.45
2019-04-24T05:07:59.261Z,18.57
2019-04-24T05:09:57.939Z,18.45
2019-04-24T05:10:55.570Z,18.57
2019-04-24T05:11:58.050Z,18.58
2019-04-24T05:14:31.929Z,18.53
2019-04-24T05:16:07.665Z,18.61
2019-04-24T05:18:04.197Z,18.55
2019-04-24T05:19:49.304Z,18.53
2019-04-24T05:22:51.268Z,18.61
2019-04-24T05:26:37.498Z,18.57
2019-04-24T05:33:14.091Z,18.64
2019-04-24T05:35:51.927Z,18.76
2019-04-24T05:36:53.788Z,18.73
2019-04-24T05:40:09.362Z,18.73
2019-04-24T05:44:09.315Z,18.78
2019-04-24T05:44:46.512Z,18.78
2019-04-24T05:46:00.149Z,18.85
2019-04-24T05:49:02.532Z,18.85
2019-04-24T05:50:01.231Z,18.83
2019-04-24T05:51:02.702Z,18.89
2019-04-24T05:51:54.935Z,18.88
2019-04-24T05:52:55.742Z,18.83
2019-04-24T05:53:58.958Z,18.86
2019-04-24T05:54:49.432Z,18.83
2019-04-24T05:56:08.988Z,18.81
2019-04-24T05:58:57.997Z,18.98
2019-04-24T06:00:10.126Z,18.92
2019-04-24T06:00:52.943Z,18.97
2019-04-24T06:04:57.865Z,19.00
2019-04-24T06:05:57.044Z,18.97
2019-04-24T06:08:52.239Z,19.04
2019-04-24T06:08:52.289Z,19.04
2019-04-24T06:09:48.397Z,19.09
2019-04-24T06:10:54.073Z,19.04
2019-04-24T06:12:00.842Z,19.17
2019-04-24T06:12:59.063Z,19.08
2019-04-24T06:13:48.189Z,19.04
2019-04-24T06:14:50.077Z,19.15
2019-04-24T06:15:55.076Z,19.19
2019-04-24T06:16:51.788Z,19.15
2019-04-24T06:17:59.555Z,19.15
2019-04-24T06:19:05.737Z,19.16
2019-04-24T06:19:52.623Z,19.32
2019-04-24T06:21:57.101Z,19.26
2019-04-24T06:23:02.618Z,19.27
2019-04-24T06:24:10.218Z,19.26
2019-04-24T06:24:49.893Z,19.37
2019-04-24T06:26:06.515Z,19.35
2019-04-24T06:26:56.361Z,19.30
2019-04-24T06:29:58.744Z,19.38
2019-04-24T06:31:07.464Z,19.37
2019-04-24T06:32:40.708Z,19.38
2019-04-24T06:35:04.332Z,19.44
2019-04-24T06:37:09.599Z,19.56
2019-04-24T06:40:07.452Z,19.52
2019-04-24T06:41:03.260Z,19.49
2019-04-24T06:42:03.647Z,19.59
2019-04-24T06:43:57.581Z,19.64
2019-04-24T06:45:45.615Z,19.66
2019-04-24T06:47:07.580Z,19.67
2019-04-24T06:47:58.392Z,19.75
2019-04-24T06:48:46.644Z,19.72
2019-04-24T06:49:59.729Z,19.71
2019-04-24T06:51:57.415Z,19.66
2019-04-24T06:52:55.717Z,19.70
2019-04-24T06:53:44.019Z,19.79
2019-04-24T06:54:48.173Z,19.75
2019-04-24T06:58:16.363Z,19.82
2019-04-24T06:59:26.509Z,19.71
2019-04-24T07:00:37.498Z,19.77
2019-04-24T07:01:23.880Z,19.78
2019-04-24T07:02:23.109Z,19.79
2019-04-24T07:03:49.183Z,19.87
2019-04-24T07:04:47.183Z,19.84
2019-04-24T07:05:23.052Z,19.79
2019-04-24T07:06:32.770Z,19.78
2019-04-24T07:08:10.326Z,19.94
2019-04-24T07:09:30.629Z,19.92
2019-04-24T07:10:42.792Z,19.85
2019-04-24T07:11:27.492Z,19.93
2019-04-24T07:12:24.475Z,19.93
2019-04-24T07:14:25.009Z,19.99
2019-04-24T07:15:28.944Z,20.04
2019-04-24T07:17:04.186Z,20.00
2019-04-24T07:17:33.622Z,20.03
2019-04-24T07:18:25.936Z,20.04
2019-04-24T07:19:26.191Z,20.10
2019-04-24T07:20:42.479Z,20.17
2019-04-24T07:21:22.340Z,20.19
2019-04-24T07:22:18.212Z,20.24
2019-04-24T07:23:26.195Z,20.27
2019-04-24T07:24:31.916Z,20.29
2019-04-24T07:25:35.291Z,20.26
2019-04-24T07:26:35.621Z,20.34
2019-04-24T07:27:24.286Z,20.30
2019-04-24T07:28:37.174Z,20.33
2019-04-24T07:29:36.989Z,20.40
2019-04-24T07:30:37.428Z,20.39
2019-04-24T07:32:23.806Z,20.42
2019-04-24T07:33:32.227Z,20.50
2019-04-24T07:36:36.917Z,20.44
2019-04-24T07:37:29.236Z,20.44
2019-04-24T07:38:24.742Z,20.44
2019-04-24T07:39:30.431Z,20.44
2019-04-24T07:40:12.802Z,20.48
2019-04-24T07:41:51.599Z,20.39
2019-04-24T07:42:13.228Z,20.37
2019-04-24T07:43:34.358Z,20.40
2019-04-24T07:45:28.818Z,20.33
2019-04-24T07:46:30.147Z,20.42
2019-04-24T07:47:25.817Z,20.37
2019-04-24T07:48:28.750Z,20.40
2019-04-24T07:50:32.851Z,20.53
2019-04-24T07:51:26.955Z,20.52
2019-04-24T07:52:34.764Z,20.53
2019-04-24T07:55:24.072Z,20.56
2019-04-24T07:56:34.681Z,20.66
2019-04-24T07:57:20.992Z,20.63
2019-04-24T07:58:38.766Z,20.70
2019-04-24T07:59:53.169Z,20.67
2019-04-24T08:00:20.283Z,20.75
2019-04-24T08:01:27.422Z,20.75
2019-04-24T08:02:26.448Z,20.83
2019-04-24T08:03:25.356Z,20.95
2019-04-24T08:04:28.417Z,21.01
2019-04-24T08:05:18.305Z,21.04
2019-04-24T08:06:32.437Z,21.13
2019-04-24T08:07:29.065Z,21.22
2019-04-24T08:08:49.192Z,21.19
2019-04-24T08:09:40.555Z,21.19
2019-04-24T08:10:28.273Z,21.20
2019-04-24T08:11:33.994Z,21.29
2019-04-24T08:12:29.220Z,21.30
2019-04-24T08:16:15.489Z,21.41
2019-04-24T08:17:40.398Z,21.40
2019-04-24T08:18:28.031Z,21.29
2019-04-24T08:19:31.695Z,21.32
2019-04-24T08:20:28.940Z,21.35
2019-04-24T08:21:17.792Z,21.33
2019-04-24T08:22:36.506Z,21.43
2019-04-24T08:23:28.992Z,21.33
2019-04-24T08:24:34.556Z,21.37
2019-04-24T08:25:18.750Z,21.40
2019-04-24T08:26:40.040Z,21.45
2019-04-24T08:29:23.321Z,21.44
2019-04-24T08:30:26.577Z,21.58
2019-04-24T08:31:33.355Z,21.65
2019-04-24T08:32:25.086Z,21.59
2019-04-24T08:33:40.617Z,21.68
2019-04-24T08:35:32.386Z,21.85
2019-04-24T08:37:33.321Z,21.92
2019-04-24T08:39:36.317Z,22.01
2019-04-24T08:40:23.480Z,22.12
2019-04-24T08:41:34.978Z,22.06
2019-04-24T08:43:23.951Z,22.03
2019-04-24T08:44:27.174Z,22.10
2019-04-24T08:46:28.504Z,22.06
2019-04-24T08:47:42.823Z,22.15
2019-04-24T08:48:37.422Z,22.10
2019-04-24T08:49:42.320Z,22.06
2019-04-24T08:50:34.025Z,22.16
2019-04-24T08:51:21.407Z,22.00
2019-04-24T08:53:28.124Z,22.14
2019-04-24T08:55:30.594Z,22.16
2019-04-24T08:56:37.515Z,22.15
2019-04-24T08:57:30.352Z,22.12
2019-04-24T08:59:40.736Z,22.01
2019-04-24T09:00:41.615Z,22.07
2019-04-24T09:01:35.697Z,22.07
2019-04-24T09:02:23.006Z,22.07
2019-04-24T09:04:39.491Z,22.12
2019-04-24T09:05:09.598Z,22.07
2019-04-24T09:06:14.168Z,22.16
2019-04-24T09:07:31.820Z,22.19
2019-04-24T09:08:32.455Z,22.26
2019-04-24T09:09:38.044Z,22.23
2019-04-24T09:12:30.291Z,22.33
2019-04-24T09:13:28.450Z,22.31
2019-04-24T09:14:25.262Z,22.26
2019-04-24T09:15:30.238Z,22.40
2019-04-24T09:17:18.805Z,22.46
2019-04-24T09:18:27.834Z,22.46
2019-04-24T09:19:16.641Z,22.61
2019-04-24T09:21:15.648Z,22.73
2019-04-24T09:22:44.304Z,22.77
2019-04-24T09:23:48.377Z,22.76
2019-04-24T09:24:31.897Z,22.88
2019-04-24T09:25:29.536Z,22.83
2019-04-24T09:26:44.778Z,22.91
2019-04-24T09:28:26.594Z,22.89
2019-04-24T09:29:48.106Z,22.89
2019-04-24T09:30:20.027Z,22.92
2019-04-24T09:31:19.177Z,22.98
2019-04-24T09:32:44.522Z,23.01
2019-04-24T09:33:27.885Z,22.99
2019-04-24T09:34:38.746Z,23.10
2019-04-24T09:35:38.504Z,23.10
2019-04-24T09:38:29.207Z,23.16
2019-04-24T09:39:27.530Z,23.20
2019-04-24T09:40:55.112Z,23.14
2019-04-24T09:42:49.589Z,23.13
2019-04-24T09:43:34.284Z,23.14
2019-04-24T09:44:23.079Z,23.25
2019-04-24T09:45:23.136Z,23.23
2019-04-24T09:46:21.027Z,23.18
2019-04-24T09:47:23.624Z,23.28
2019-04-24T09:49:33.807Z,23.32
2019-04-24T09:53:42.116Z,23.23
2019-04-24T09:54:21.058Z,23.23
2019-04-24T09:55:33.278Z,23.20
2019-04-24T09:56:23.238Z,23.21
2019-04-24T09:58:32.209Z,23.23
2019-04-24T09:59:24.336Z,23.23
2019-04-24T10:00:18.026Z,23.18
2019-04-24T10:02:27.933Z,23.18
2019-04-24T10:03:31.274Z,23.21
2019-04-24T10:08:19.401Z,23.33
2019-04-24T10:10:24.239Z,23.42
2019-04-24T10:12:35.949Z,23.47
2019-04-24T10:13:13.546Z,23.54
2019-04-24T10:14:15.708Z,23.66
2019-04-24T10:15:28.462Z,23.52
2019-04-24T10:16:12.971Z,23.52
2019-04-24T10:18:24.732Z,23.44
2019-04-24T10:19:37.540Z,23.42
2019-04-24T10:20:22.344Z,23.47
2019-04-24T10:21:12.488Z,23.49
2019-04-24T10:22:16.436Z,23.62
2019-04-24T10:23:20.946Z,23.62
2019-04-24T10:24:12.333Z,23.56
2019-04-24T10:25:17.493Z,23.67
2019-04-24T10:26:23.352Z,23.62
2019-04-24T10:27:25.070Z,23.77
2019-04-24T10:29:30.307Z,23.77
2019-04-24T10:30:13.842Z,23.79
2019-04-24T10:31:16.600Z,23.89
2019-04-24T10:32:20.507Z,23.89
2019-04-24T10:34:19.183Z,23.89
2019-04-24T10:35:27.048Z,23.96
2019-04-24T10:36:21.225Z,23.99
2019-04-24T10:37:29.798Z,24.06
2019-04-24T10:38:43.334Z,24.21
2019-04-24T10:39:39.877Z,24.16
2019-04-24T10:40:28.641Z,24.21
2019-04-24T10:41:15.066Z,24.25
2019-04-24T10:42:15.778Z,24.25
2019-04-24T10:43:19.217Z,24.28
2019-04-24T10:46:21.042Z,24.61
2019-04-24T10:49:31.829Z,24.59
2019-04-24T10:50:15.215Z,24.68
2019-04-24T10:51:15.299Z,24.78
2019-04-24T10:52:11.765Z,24.71
2019-04-24T10:54:16.606Z,24.77
2019-04-24T10:55:31.231Z,24.85
2019-04-24T10:57:20.598Z,24.97
2019-04-24T10:58:14.190Z,25.06
2019-04-24T10:59:17.342Z,25.03
2019-04-24T11:00:19.590Z,25.15
2019-04-24T11:03:27.503Z,25.36
2019-04-24T11:05:33.798Z,25.52
2019-04-24T11:06:16.312Z,25.58
2019-04-24T11:09:29.806Z,25.88
2019-04-24T11:10:29.678Z,26.01
2019-04-24T11:11:19.374Z,26.10
2019-04-24T11:14:17.502Z,26.27
2019-04-24T11:15:22.431Z,26.37
2019-04-24T11:16:26.855Z,26.56
2019-04-24T11:17:23.833Z,26.64
2019-04-24T11:18:19.891Z,26.79
2019-04-24T11:20:15.865Z,27.19
2019-04-24T11:21:47.260Z,27.58
2019-04-24T11:22:19.235Z,28.06
2019-04-24T11:25:28.095Z,29.53
2019-04-24T11:28:00.550Z,30.36
2019-04-24T11:28:33.478Z,30.74
2019-04-24T11:29:16.482Z,31.14
2019-04-24T11:31:17.346Z,31.97
2019-04-24T11:32:22.761Z,32.34
2019-04-24T11:34:44.136Z,32.68
2019-04-24T11:36:35.701Z,33.15
2019-04-24T11:38:18.820Z,33.77
2019-04-24T11:41:26.143Z,34.03
2019-04-24T11:42:10.333Z,34.29
2019-04-24T11:43:18.463Z,34.79
2019-04-24T11:44:16.383Z,35.01
2019-04-24T11:46:42.048Z,35.26
2019-04-24T11:47:25.681Z,35.39
2019-04-24T11:48:34.795Z,35.64
2019-04-24T11:49:25.108Z,35.75
2019-04-24T11:50:38.802Z,35.81
2019-04-24T11:52:24.326Z,35.93
2019-04-24T11:53:14.424Z,35.64
2019-04-24T11:54:23.072Z,35.56
2019-04-24T11:55:26.242Z,35.86
2019-04-24T11:56:20.326Z,35.98
2019-04-24T11:58:39.503Z,36.41
2019-04-24T11:58:50.718Z,36.69
2019-04-24T11:59:53.806Z,36.89
2019-04-24T12:01:05.489Z,37.04
2019-04-24T12:03:14.185Z,37.16
2019-04-24T12:04:24.210Z,37.28
2019-04-24T12:06:12.375Z,37.61
2019-04-24T12:07:41.938Z,37.64
2019-04-24T12:08:12.813Z,37.63
2019-04-24T12:09:26.439Z,37.75
2019-04-24T12:10:22.379Z,37.79
2019-04-24T12:11:26.201Z,37.83
2019-04-24T12:12:09.590Z,37.76
2019-04-24T12:15:23.523Z,37.94
2019-04-24T12:16:10.973Z,37.94
2019-04-24T12:17:13.147Z,38.00
2019-04-24T12:18:16.352Z,38.10
2019-04-24T12:20:17.876Z,38.35
2019-04-24T12:22:10.715Z,38.50
2019-04-24T12:23:17.683Z,38.41
2019-04-24T12:25:10.609Z,38.48
2019-04-24T12:27:08.485Z,38.46
2019-04-24T12:28:18.519Z,38.57
2019-04-24T12:30:13.250Z,38.87
2019-04-24T12:31:04.904Z,38.79
2019-04-24T12:33:13.637Z,38.82
2019-04-24T12:34:18.802Z,38.92
2019-04-24T12:35:17.828Z,39.01
2019-04-24T12:37:15.169Z,39.26
2019-04-24T12:38:18.481Z,39.29
2019-04-24T12:39:06.586Z,39.26
2019-04-24T12:40:18.793Z,39.48
2019-04-24T12:41:11.699Z,39.41
2019-04-24T12:42:38.936Z,39.42
2019-04-24T12:43:13.788Z,39.54
2019-04-24T12:44:18.456Z,39.56
2019-04-24T12:45:12.491Z,39.79
2019-04-24T12:46:23.502Z,39.54
2019-04-24T12:47:33.590Z,39.51
2019-04-24T12:48:08.110Z,39.07
2019-04-24T12:49:11.506Z,38.50
2019-04-24T12:50:06.765Z,38.12
2019-04-24T12:51:12.257Z,37.71
2019-04-24T12:52:06.512Z,37.37
2019-04-24T12:55:16.346Z,37.07
2019-04-24T12:56:14.852Z,37.47
2019-04-24T12:58:28.715Z,37.97
2019-04-24T12:59:14.908Z,38.16
2019-04-24T13:00:15.685Z,38.62
2019-04-24T13:02:11.480Z,38.77
2019-04-24T13:03:15.960Z,39.01
2019-04-24T13:07:24.692Z,39.71
2019-04-24T13:09:32.489Z,39.82
2019-04-24T13:10:14.479Z,39.80
2019-04-24T13:11:22.620Z,39.98
2019-04-24T13:12:27.172Z,40.10
2019-04-24T13:13:12.959Z,40.16
2019-04-24T13:15:18.157Z,40.19
2019-04-24T13:16:21.195Z,40.23
2019-04-24T13:17:22.531Z,40.20
2019-04-24T13:18:15.610Z,40.19
2019-04-24T13:19:15.596Z,40.14
2019-04-24T13:19:47.670Z,40.29
2019-04-24T13:20:49.477Z,40.20
2019-04-24T13:21:53.960Z,40.34
2019-04-24T13:22:59.441Z,40.39
2019-04-24T13:24:01.292Z,40.49
2019-04-24T13:25:10.684Z,40.57
2019-04-24T13:26:17.031Z,40.49
2019-04-24T13:27:16.238Z,40.20
2019-04-24T13:28:40.149Z,40.00
2019-04-24T13:30:35.475Z,39.27
2019-04-24T13:31:23.593Z,38.90
2019-04-24T13:34:21.537Z,38.44
2019-04-24T13:35:20.566Z,38.79
2019-04-24T13:36:32.541Z,38.44
2019-04-24T13:37:18.639Z,38.73
2019-04-24T13:38:25.225Z,38.77
2019-04-24T13:39:30.810Z,39.01
2019-04-24T13:40:07.648Z,39.45
2019-04-24T13:41:06.767Z,39.71
2019-04-24T13:42:18.009Z,39.94
2019-04-24T13:43:27.086Z,40.20
2019-04-24T13:45:33.321Z,40.69
2019-04-24T13:46:18.612Z,41.00
2019-04-24T13:47:19.949Z,40.93
2019-04-24T13:49:15.209Z,41.20
2019-04-24T13:50:20.239Z,41.34
2019-04-24T13:54:33.808Z,41.86
2019-04-24T13:55:20.100Z,41.88
2019-04-24T13:56:11.403Z,41.83
2019-04-24T13:57:15.461Z,41.99
2019-04-24T13:58:22.419Z,41.74
2019-04-24T14:00:44.192Z,42.05
2019-04-24T14:01:29.570Z,42.20
2019-04-24T14:02:31.212Z,42.29
2019-04-24T14:05:16.781Z,41.98
2019-04-24T14:06:27.243Z,41.98
2019-04-24T14:07:35.403Z,41.93
2019-04-24T14:09:51.092Z,41.83
2019-04-24T14:12:25.730Z,42.10
2019-04-24T14:12:27.903Z,42.29
2019-04-24T14:13:35.053Z,42.55
2019-04-24T14:14:16.430Z,42.58
2019-04-24T14:16:14.811Z,42.71
2019-04-24T14:17:16.679Z,42.71
2019-04-24T14:22:13.241Z,42.10
2019-04-24T14:23:28.273Z,42.17
2019-04-24T14:24:22.676Z,41.95
2019-04-24T14:26:19.718Z,41.63
2019-04-24T14:27:17.420Z,41.55
2019-04-24T14:29:21.865Z,41.83
2019-04-24T14:30:19.040Z,41.74
2019-04-24T14:31:17.566Z,41.64
2019-04-24T14:35:32.704Z,39.54
2019-04-24T14:37:19.043Z,39.00
2019-04-24T14:39:23.755Z,38.77
2019-04-24T14:41:21.000Z,38.60
2019-04-24T14:45:31.217Z,38.04
2019-04-24T14:46:28.859Z,37.94
2019-04-24T14:47:24.086Z,37.90
2019-04-24T14:48:15.265Z,37.78
2019-04-24T14:50:24.573Z,39.10
2019-04-24T14:51:19.590Z,39.30
2019-04-24T14:52:24.045Z,39.57
2019-04-24T14:53:23.657Z,39.67
2019-04-24T14:54:18.902Z,39.67
2019-04-24T14:55:30.375Z,39.76
2019-04-24T14:56:19.045Z,39.95
2019-04-24T14:57:23.398Z,40.22
2019-04-24T14:59:40.803Z,40.16
2019-04-24T15:01:19.218Z,40.05
2019-04-24T15:02:17.107Z,40.10
2019-04-24T15:03:16.812Z,40.13
2019-04-24T15:04:18.953Z,40.20
2019-04-24T15:05:20.383Z,40.20
2019-04-24T15:07:17.474Z,39.89
2019-04-24T15:08:20.667Z,39.64
2019-04-24T15:09:17.175Z,39.89
2019-04-24T15:11:21.923Z,40.23
2019-04-24T15:13:35.651Z,40.69
2019-04-24T15:15:18.553Z,41.17
2019-04-24T15:16:35.962Z,41.15
2019-04-24T15:17:18.806Z,41.00
2019-04-24T15:18:12.646Z,40.62
2019-04-24T15:20:35.744Z,40.22
2019-04-24T15:21:16.524Z,40.04
2019-04-24T15:23:38.264Z,40.29
2019-04-24T15:24:42.794Z,40.28
2019-04-24T15:26:37.767Z,40.20
2019-04-24T15:27:19.149Z,40.08
2019-04-24T15:28:15.128Z,39.78
2019-04-24T15:30:16.369Z,39.76
2019-04-24T15:31:12.623Z,39.83
2019-04-24T15:32:23.395Z,39.94
2019-04-24T15:35:22.363Z,40.16
2019-04-24T15:36:22.772Z,40.07
2019-04-24T15:37:33.065Z,40.04
2019-04-24T15:38:31.578Z,40.12
2019-04-24T15:39:19.710Z,40.04
2019-04-24T15:40:30.979Z,39.76
2019-04-24T15:41:28.026Z,39.71
2019-04-24T15:42:14.801Z,39.57
2019-04-24T15:44:14.596Z,38.73
2019-04-24T15:45:15.990Z,38.79
2019-04-24T15:46:18.354Z,38.91
2019-04-24T15:47:36.911Z,38.85
2019-04-24T15:48:30.786Z,38.66
2019-04-24T15:49:19.555Z,37.80
2019-04-24T15:50:27.500Z,37.43
2019-04-24T15:51:16.895Z,36.94
2019-04-24T15:51:47.533Z,36.48
2019-04-24T15:52:47.553Z,36.01
2019-04-24T15:53:47.533Z,35.69
2019-04-24T15:54:47.541Z,35.22
2019-04-24T15:55:47.552Z,34.76
2019-04-24T15:56:47.520Z,34.38
2019-04-24T15:57:49.720Z,34.28
2019-04-24T15:58:58.811Z,34.11
2019-04-24T16:00:13.680Z,33.85
2019-04-24T16:01:21.916Z,33.76
2019-04-24T16:02:21.238Z,33.53
2019-04-24T16:03:23.579Z,33.32
2019-04-24T16:04:18.289Z,33.26
2019-04-24T16:04:55.967Z,33.10
2019-04-24T16:05:47.494Z,32.98
2019-04-24T16:06:47.498Z,32.83
2019-04-24T16:07:47.538Z,32.73
2019-04-24T16:08:47.488Z,32.60
2019-04-24T16:09:47.518Z,32.63
2019-04-24T16:10:47.482Z,32.46
2019-04-24T16:11:47.474Z,32.45
2019-04-24T16:12:47.467Z,32.30
2019-04-24T16:13:57.464Z,32.16
2019-04-24T16:15:37.454Z,32.02
2019-04-24T16:16:13.067Z,31.93
2019-04-24T16:17:11.252Z,31.86
2019-04-24T16:18:23.361Z,31.92
2019-04-24T16:20:11.842Z,31.67
2019-04-24T16:22:16.235Z,31.62
2019-04-24T16:24:38.249Z,31.47
2019-04-24T16:25:32.547Z,31.47
2019-04-24T16:26:16.138Z,31.37
2019-04-24T16:27:17.561Z,31.30
2019-04-24T16:28:18.094Z,31.20
2019-04-24T16:29:15.962Z,31.25
2019-04-24T16:30:09.079Z,31.22
2019-04-24T16:32:31.253Z,31.10
2019-04-24T16:33:20.549Z,30.99
2019-04-24T16:35:12.101Z,30.93
2019-04-24T16:36:29.462Z,30.88
2019-04-24T16:38:20.591Z,30.86
2019-04-24T16:40:29.923Z,30.74
2019-04-24T16:41:22.623Z,30.67
2019-04-24T16:44:28.626Z,30.61
2019-04-24T16:45:10.110Z,30.49
2019-04-24T16:46:40.658Z,30.55
2019-04-24T16:47:12.787Z,30.43
2019-04-24T16:49:19.270Z,30.33
2019-04-24T16:52:15.239Z,30.21
2019-04-24T16:53:15.937Z,30.21
2019-04-24T16:54:17.379Z,30.16
2019-04-24T16:56:25.087Z,30.03
2019-04-24T16:57:12.031Z,29.94
2019-04-24T16:58:15.702Z,29.87
2019-04-24T16:59:29.533Z,29.87
2019-04-24T17:00:22.855Z,29.77
2019-04-24T17:01:40.140Z,29.68
2019-04-24T17:03:22.538Z,29.73
2019-04-24T17:06:20.135Z,29.64
2019-04-24T17:07:13.617Z,29.47
2019-04-24T17:08:23.401Z,29.40
2019-04-24T17:10:25.240Z,29.35
2019-04-24T17:11:22.583Z,29.27
2019-04-24T17:12:23.994Z,29.21
2019-04-24T17:13:20.429Z,29.16
2019-04-24T17:15:17.265Z,29.12
2019-04-24T17:16:24.858Z,28.96
2019-04-24T17:20:13.945Z,28.87
2019-04-24T17:22:32.349Z,28.78
2019-04-24T17:23:14.968Z,28.67
2019-04-24T17:24:14.236Z,28.57
2019-04-24T17:27:14.785Z,28.34
2019-04-24T17:28:17.208Z,28.43
2019-04-24T17:31:18.433Z,28.20
2019-04-24T17:32:21.818Z,28.20
2019-04-24T17:34:20.894Z,28.12
2019-04-24T17:36:46.892Z,28.06
2019-04-24T17:37:46.873Z,28.08
2019-04-24T17:38:46.863Z,28.06
2019-04-24T17:39:46.858Z,27.95
2019-04-24T17:40:47.088Z,27.93
2019-04-24T17:41:55.385Z,27.85
2019-04-24T17:43:07.091Z,27.91
2019-04-24T17:45:16.245Z,27.90
2019-04-24T17:46:15.087Z,27.68
2019-04-24T17:47:18.400Z,27.72
2019-04-24T17:48:12.898Z,27.73
2019-04-24T17:49:23.405Z,27.61
2019-04-24T17:51:27.865Z,27.53
2019-04-24T17:52:29.123Z,27.50
2019-04-24T17:54:19.326Z,27.47
2019-04-24T17:55:11.025Z,27.53
2019-04-24T17:56:18.339Z,27.45
2019-04-24T17:57:12.130Z,27.41
2019-04-24T17:57:48.748Z,27.40
2019-04-24T17:58:46.679Z,27.41
2019-04-24T17:59:46.667Z,27.38
2019-04-24T18:00:46.655Z,27.43
2019-04-24T18:01:46.648Z,27.40
2019-04-24T18:02:46.640Z,27.40
2019-04-24T18:03:46.630Z,27.30
2019-04-24T18:04:46.629Z,27.29
2019-04-24T18:05:46.612Z,27.28
2019-04-24T18:06:46.599Z,27.30
2019-04-24T18:07:46.588Z,27.29
2019-04-24T18:08:46.628Z,27.28
2019-04-24T18:09:46.584Z,27.22
2019-04-24T18:10:46.563Z,27.25
2019-04-24T18:11:46.551Z,27.16
2019-04-24T18:12:46.544Z,27.10
2019-04-24T18:13:46.529Z,27.05
2019-04-24T18:14:46.518Z,27.03
2019-04-24T18:15:46.509Z,27.03
2019-04-24T18:16:46.514Z,26.98
2019-04-24T18:17:46.492Z,26.91
2019-04-24T18:18:46.494Z,27.01